sensor_id;sensor_type;location;lat;lon;timestamp;temperature;humidity
24049;DHT22;12250;50.956;4.746;2023-04-10T00:02:22;9.60;99.90
24049;DHT22;12250;50.956;4.746;2023-04-10T00:04:48;9.60;99.90
24049;DHT22;12250;50.956;4.746;2023-04-10T00:07:13;9.60;99.90
24049;DHT22;12250;50.956;4.746;2023-04-10T00:09:40;9.60;99.90
24049;DHT22;12250;50.956;4.746;2023-04-10T00:12:05;9.60;99.90
24049;DHT22;12250;50.956;4.746;2023-04-10T00:14:31;9.50;99.90
24049;DHT22;12250;50.956;4.746;2023-04-10T00:16:57;9.60;99.90
24049;DHT22;12250;50.956;4.746;2023-04-10T00:19:22;9.60;99.90
24049;DHT22;12250;50.956;4.746;2023-04-10T00:21:48;9.60;99.90
24049;DHT22;12250;50.956;4.746;2023-04-10T00:24:14;9.60;99.90
24049;DHT22;12250;50.956;4.746;2023-04-10T00:26:40;9.60;99.90
24049;DHT22;12250;50.956;4.746;2023-04-10T00:29:05;9.70;99.90
24049;DHT22;12250;50.956;4.746;2023-04-10T00:31:31;9.70;99.90
24049;DHT22;12250;50.956;4.746;2023-04-10T00:33:57;9.60;99.90
24049;DHT22;12250;50.956;4.746;2023-04-10T00:36:22;9.50;99.90
24049;DHT22;12250;50.956;4.746;2023-04-10T00:38:49;9.40;99.90
24049;DHT22;12250;50.956;4.746;2023-04-10T00:41:15;9.40;99.90
24049;DHT22;12250;50.956;4.746;2023-04-10T00:43:42;9.40;99.90
24049;DHT22;12250;50.956;4.746;2023-04-10T00:46:08;9.30;99.90
24049;DHT22;12250;50.956;4.746;2023-04-10T00:48:34;9.30;99.90
24049;DHT22;12250;50.956;4.746;2023-04-10T00:51:00;9.20;99.90
24049;DHT22;12250;50.956;4.746;2023-04-10T00:53:27;9.10;99.90
24049;DHT22;12250;50.956;4.746;2023-04-10T00:55:53;9.00;99.90
24049;DHT22;12250;50.956;4.746;2023-04-10T00:58:20;8.90;99.90
24049;DHT22;12250;50.956;4.746;2023-04-10T01:00:46;8.90;99.90
24049;DHT22;12250;50.956;4.746;2023-04-10T01:03:15;8.90;99.90
24049;DHT22;12250;50.956;4.746;2023-04-10T01:06:04;8.90;99.90
24049;DHT22;12250;50.956;4.746;2023-04-10T01:11:26;9.00;99.90
24049;DHT22;12250;50.956;4.746;2023-04-10T01:16:45;9.10;99.90
24049;DHT22;12250;50.956;4.746;2023-04-10T01:21:53;9.20;99.90
24049;DHT22;12250;50.956;4.746;2023-04-10T01:30:09;9.20;99.90
24049;DHT22;12250;50.956;4.746;2023-04-10T01:32:37;9.30;99.90
24049;DHT22;12250;50.956;4.746;2023-04-10T01:35:05;9.20;99.90
24049;DHT22;12250;50.956;4.746;2023-04-10T01:37:33;9.20;99.90
24049;DHT22;12250;50.956;4.746;2023-04-10T01:40:08;9.20;99.90
24049;DHT22;12250;50.956;4.746;2023-04-10T01:42:38;9.20;99.90
24049;DHT22;12250;50.956;4.746;2023-04-10T01:45:07;9.20;99.90
24049;DHT22;12250;50.956;4.746;2023-04-10T01:47:36;9.10;99.90
24049;DHT22;12250;50.956;4.746;2023-04-10T01:50:02;9.10;99.90
24049;DHT22;12250;50.956;4.746;2023-04-10T01:52:29;9.20;99.90
24049;DHT22;12250;50.956;4.746;2023-04-10T01:54:56;9.20;99.90
24049;DHT22;12250;50.956;4.746;2023-04-10T01:57:23;9.20;99.90
24049;DHT22;12250;50.956;4.746;2023-04-10T01:59:49;9.20;99.90
24049;DHT22;12250;50.956;4.746;2023-04-10T02:02:15;9.10;99.90
24049;DHT22;12250;50.956;4.746;2023-04-10T02:04:40;9.00;99.90
24049;DHT22;12250;50.956;4.746;2023-04-10T02:07:15;9.00;99.90
24049;DHT22;12250;50.956;4.746;2023-04-10T02:10:07;8.90;99.90
24049;DHT22;12250;50.956;4.746;2023-04-10T02:12:45;8.80;99.90
24049;DHT22;12250;50.956;4.746;2023-04-10T02:15:13;8.80;99.90
24049;DHT22;12250;50.956;4.746;2023-04-10T02:17:41;8.70;99.90
24049;DHT22;12250;50.956;4.746;2023-04-10T02:20:07;8.60;99.90
24049;DHT22;12250;50.956;4.746;2023-04-10T02:22:34;8.50;99.90
24049;DHT22;12250;50.956;4.746;2023-04-10T02:25:03;8.50;99.90
24049;DHT22;12250;50.956;4.746;2023-04-10T02:27:31;8.60;99.90
24049;DHT22;12250;50.956;4.746;2023-04-10T02:29:58;8.60;99.90
24049;DHT22;12250;50.956;4.746;2023-04-10T02:32:23;8.50;99.90
24049;DHT22;12250;50.956;4.746;2023-04-10T02:34:49;8.60;99.90
24049;DHT22;12250;50.956;4.746;2023-04-10T02:37:15;8.60;99.90
24049;DHT22;12250;50.956;4.746;2023-04-10T02:39:41;8.60;99.90
24049;DHT22;12250;50.956;4.746;2023-04-10T02:42:07;8.50;99.90
24049;DHT22;12250;50.956;4.746;2023-04-10T02:44:32;8.60;99.90
24049;DHT22;12250;50.956;4.746;2023-04-10T02:46:58;8.60;99.90
24049;DHT22;12250;50.956;4.746;2023-04-10T02:49:24;8.60;99.90
24049;DHT22;12250;50.956;4.746;2023-04-10T02:51:50;8.50;99.90
24049;DHT22;12250;50.956;4.746;2023-04-10T02:54:15;8.50;99.90
24049;DHT22;12250;50.956;4.746;2023-04-10T02:56:41;8.50;99.90
24049;DHT22;12250;50.956;4.746;2023-04-10T02:59:06;8.50;99.90
24049;DHT22;12250;50.956;4.746;2023-04-10T03:01:32;8.50;99.90
24049;DHT22;12250;50.956;4.746;2023-04-10T03:03:58;8.40;99.90
24049;DHT22;12250;50.956;4.746;2023-04-10T03:06:24;8.40;99.90
24049;DHT22;12250;50.956;4.746;2023-04-10T03:08:52;8.30;99.90
24049;DHT22;12250;50.956;4.746;2023-04-10T03:11:18;8.30;99.90
24049;DHT22;12250;50.956;4.746;2023-04-10T03:13:43;8.20;99.90
24049;DHT22;12250;50.956;4.746;2023-04-10T03:16:09;8.20;99.90
24049;DHT22;12250;50.956;4.746;2023-04-10T03:18:35;8.10;99.90
24049;DHT22;12250;50.956;4.746;2023-04-10T03:21:01;8.10;99.90
24049;DHT22;12250;50.956;4.746;2023-04-10T03:23:27;8.00;99.90
24049;DHT22;12250;50.956;4.746;2023-04-10T03:25:52;7.90;99.90
24049;DHT22;12250;50.956;4.746;2023-04-10T03:28:20;7.90;99.90
24049;DHT22;12250;50.956;4.746;2023-04-10T03:30:45;7.90;99.90
24049;DHT22;12250;50.956;4.746;2023-04-10T03:33:11;7.90;99.90
24049;DHT22;12250;50.956;4.746;2023-04-10T03:35:37;8.00;99.90
24049;DHT22;12250;50.956;4.746;2023-04-10T03:38:02;7.90;99.90
24049;DHT22;12250;50.956;4.746;2023-04-10T03:40:28;8.00;99.90
24049;DHT22;12250;50.956;4.746;2023-04-10T03:42:54;8.00;99.90
24049;DHT22;12250;50.956;4.746;2023-04-10T03:45:19;8.00;99.90
24049;DHT22;12250;50.956;4.746;2023-04-10T03:47:45;8.20;99.90
24049;DHT22;12250;50.956;4.746;2023-04-10T03:50:11;8.30;99.90
24049;DHT22;12250;50.956;4.746;2023-04-10T03:52:37;8.30;99.90
24049;DHT22;12250;50.956;4.746;2023-04-10T03:55:03;8.40;99.90
24049;DHT22;12250;50.956;4.746;2023-04-10T03:57:28;8.40;99.90
24049;DHT22;12250;50.956;4.746;2023-04-10T03:59:54;8.40;99.90
24049;DHT22;12250;50.956;4.746;2023-04-10T04:02:20;8.50;99.90
24049;DHT22;12250;50.956;4.746;2023-04-10T04:04:47;8.50;99.90
24049;DHT22;12250;50.956;4.746;2023-04-10T04:07:12;8.50;99.90
24049;DHT22;12250;50.956;4.746;2023-04-10T04:09:38;8.50;99.90
24049;DHT22;12250;50.956;4.746;2023-04-10T04:12:06;8.50;99.90
24049;DHT22;12250;50.956;4.746;2023-04-10T04:14:32;8.50;99.90
24049;DHT22;12250;50.956;4.746;2023-04-10T04:16:57;8.50;99.90
24049;DHT22;12250;50.956;4.746;2023-04-10T04:19:24;8.50;99.90
24049;DHT22;12250;50.956;4.746;2023-04-10T04:21:50;8.40;99.90
24049;DHT22;12250;50.956;4.746;2023-04-10T04:24:16;8.40;99.90
24049;DHT22;12250;50.956;4.746;2023-04-10T04:26:41;8.40;99.90
24049;DHT22;12250;50.956;4.746;2023-04-10T04:29:07;8.50;99.90
24049;DHT22;12250;50.956;4.746;2023-04-10T04:31:32;8.50;99.90
24049;DHT22;12250;50.956;4.746;2023-04-10T04:33:59;8.50;99.90
24049;DHT22;12250;50.956;4.746;2023-04-10T04:36:25;8.40;99.90
24049;DHT22;12250;50.956;4.746;2023-04-10T04:38:52;8.50;99.90
24049;DHT22;12250;50.956;4.746;2023-04-10T04:41:17;8.30;99.90
24049;DHT22;12250;50.956;4.746;2023-04-10T04:43:44;8.40;99.90
24049;DHT22;12250;50.956;4.746;2023-04-10T04:46:12;8.40;99.90
24049;DHT22;12250;50.956;4.746;2023-04-10T04:48:37;8.40;99.90
24049;DHT22;12250;50.956;4.746;2023-04-10T04:51:05;8.50;99.90
24049;DHT22;12250;50.956;4.746;2023-04-10T04:53:31;8.40;99.90
24049;DHT22;12250;50.956;4.746;2023-04-10T04:55:56;8.40;99.90
24049;DHT22;12250;50.956;4.746;2023-04-10T04:58:22;8.40;99.90
24049;DHT22;12250;50.956;4.746;2023-04-10T05:00:50;8.50;99.90
24049;DHT22;12250;50.956;4.746;2023-04-10T05:03:16;8.50;99.90
24049;DHT22;12250;50.956;4.746;2023-04-10T05:05:42;8.60;99.90
24049;DHT22;12250;50.956;4.746;2023-04-10T05:08:08;8.70;99.90
24049;DHT22;12250;50.956;4.746;2023-04-10T05:10:35;8.70;99.90
24049;DHT22;12250;50.956;4.746;2023-04-10T05:13:00;8.70;99.90
24049;DHT22;12250;50.956;4.746;2023-04-10T05:15:26;8.70;99.90
24049;DHT22;12250;50.956;4.746;2023-04-10T05:17:52;8.70;99.90
24049;DHT22;12250;50.956;4.746;2023-04-10T05:20:18;8.80;99.90
24049;DHT22;12250;50.956;4.746;2023-04-10T05:22:44;8.80;99.90
24049;DHT22;12250;50.956;4.746;2023-04-10T05:25:10;8.80;99.90
24049;DHT22;12250;50.956;4.746;2023-04-10T05:27:35;8.80;99.90
24049;DHT22;12250;50.956;4.746;2023-04-10T05:30:01;9.00;99.90
24049;DHT22;12250;50.956;4.746;2023-04-10T05:32:28;9.00;99.90
24049;DHT22;12250;50.956;4.746;2023-04-10T05:34:54;9.00;99.90
24049;DHT22;12250;50.956;4.746;2023-04-10T05:37:19;9.10;99.90
24049;DHT22;12250;50.956;4.746;2023-04-10T05:39:45;9.20;99.90
24049;DHT22;12250;50.956;4.746;2023-04-10T05:42:11;9.20;99.90
24049;DHT22;12250;50.956;4.746;2023-04-10T05:44:38;9.30;99.90
24049;DHT22;12250;50.956;4.746;2023-04-10T05:47:04;9.30;99.90
24049;DHT22;12250;50.956;4.746;2023-04-10T05:49:30;9.40;99.90
24049;DHT22;12250;50.956;4.746;2023-04-10T05:51:55;9.50;99.90
24049;DHT22;12250;50.956;4.746;2023-04-10T05:54:21;9.60;99.90
24049;DHT22;12250;50.956;4.746;2023-04-10T05:56:47;9.70;99.90
24049;DHT22;12250;50.956;4.746;2023-04-10T05:59:12;9.80;99.90
24049;DHT22;12250;50.956;4.746;2023-04-10T06:01:38;9.90;99.90
24049;DHT22;12250;50.956;4.746;2023-04-10T06:04:05;10.00;99.90
24049;DHT22;12250;50.956;4.746;2023-04-10T06:06:31;10.10;99.90
24049;DHT22;12250;50.956;4.746;2023-04-10T06:08:59;10.20;99.90
24049;DHT22;12250;50.956;4.746;2023-04-10T06:11:24;10.20;99.90
24049;DHT22;12250;50.956;4.746;2023-04-10T06:13:50;10.30;99.90
24049;DHT22;12250;50.956;4.746;2023-04-10T06:16:15;10.50;99.90
24049;DHT22;12250;50.956;4.746;2023-04-10T06:18:41;10.60;99.90
24049;DHT22;12250;50.956;4.746;2023-04-10T06:21:07;10.70;99.90
24049;DHT22;12250;50.956;4.746;2023-04-10T06:23:33;10.80;99.90
24049;DHT22;12250;50.956;4.746;2023-04-10T06:25:59;10.90;99.90
24049;DHT22;12250;50.956;4.746;2023-04-10T06:28:25;10.90;99.90
24049;DHT22;12250;50.956;4.746;2023-04-10T06:30:53;10.90;99.90
24049;DHT22;12250;50.956;4.746;2023-04-10T06:33:20;11.00;99.90
24049;DHT22;12250;50.956;4.746;2023-04-10T06:35:46;11.00;99.90
24049;DHT22;12250;50.956;4.746;2023-04-10T06:38:11;11.20;99.90
24049;DHT22;12250;50.956;4.746;2023-04-10T06:40:37;11.30;99.90
24049;DHT22;12250;50.956;4.746;2023-04-10T06:43:03;11.40;99.90
24049;DHT22;12250;50.956;4.746;2023-04-10T06:45:28;11.30;99.90
24049;DHT22;12250;50.956;4.746;2023-04-10T06:47:54;11.40;99.90
24049;DHT22;12250;50.956;4.746;2023-04-10T06:50:20;11.50;99.90
24049;DHT22;12250;50.956;4.746;2023-04-10T06:52:47;11.50;99.90
24049;DHT22;12250;50.956;4.746;2023-04-10T06:55:13;11.70;99.90
24049;DHT22;12250;50.956;4.746;2023-04-10T06:57:39;11.80;99.90
24049;DHT22;12250;50.956;4.746;2023-04-10T07:00:06;11.90;99.90
24049;DHT22;12250;50.956;4.746;2023-04-10T07:02:32;11.90;99.90
24049;DHT22;12250;50.956;4.746;2023-04-10T07:04:57;12.00;99.90
24049;DHT22;12250;50.956;4.746;2023-04-10T07:07:23;12.00;99.90
24049;DHT22;12250;50.956;4.746;2023-04-10T07:09:49;12.10;99.90
24049;DHT22;12250;50.956;4.746;2023-04-10T07:12:14;12.20;99.90
24049;DHT22;12250;50.956;4.746;2023-04-10T07:14:41;12.30;99.90
24049;DHT22;12250;50.956;4.746;2023-04-10T07:17:07;12.60;99.90
24049;DHT22;12250;50.956;4.746;2023-04-10T07:19:33;12.60;99.90
24049;DHT22;12250;50.956;4.746;2023-04-10T07:21:59;12.70;99.90
24049;DHT22;12250;50.956;4.746;2023-04-10T07:24:25;12.90;99.90
24049;DHT22;12250;50.956;4.746;2023-04-10T07:26:50;13.10;99.60
24049;DHT22;12250;50.956;4.746;2023-04-10T07:29:16;13.30;99.60
24049;DHT22;12250;50.956;4.746;2023-04-10T07:31:42;13.50;98.90
24049;DHT22;12250;50.956;4.746;2023-04-10T07:34:10;13.70;98.90
24049;DHT22;12250;50.956;4.746;2023-04-10T07:36:36;13.90;98.60
24049;DHT22;12250;50.956;4.746;2023-04-10T07:39:01;14.00;97.60
24049;DHT22;12250;50.956;4.746;2023-04-10T07:41:27;14.20;97.60
24049;DHT22;12250;50.956;4.746;2023-04-10T07:43:53;14.30;96.80
24049;DHT22;12250;50.956;4.746;2023-04-10T07:46:18;14.40;96.40
24049;DHT22;12250;50.956;4.746;2023-04-10T07:48:44;14.60;96.40
24049;DHT22;12250;50.956;4.746;2023-04-10T07:51:11;14.60;96.20
24049;DHT22;12250;50.956;4.746;2023-04-10T07:53:37;14.60;95.70
24049;DHT22;12250;50.956;4.746;2023-04-10T07:56:03;14.70;95.60
24049;DHT22;12250;50.956;4.746;2023-04-10T07:58:29;14.70;95.60
24049;DHT22;12250;50.956;4.746;2023-04-10T08:00:56;14.70;95.10
24049;DHT22;12250;50.956;4.746;2023-04-10T08:03:22;14.80;95.20
24049;DHT22;12250;50.956;4.746;2023-04-10T08:05:48;14.90;95.00
24049;DHT22;12250;50.956;4.746;2023-04-10T08:08:15;14.90;94.20
24049;DHT22;12250;50.956;4.746;2023-04-10T08:10:41;15.00;94.00
24049;DHT22;12250;50.956;4.746;2023-04-10T08:13:07;14.70;94.00
24049;DHT22;12250;50.956;4.746;2023-04-10T08:15:32;15.00;94.20
24049;DHT22;12250;50.956;4.746;2023-04-10T08:17:58;14.90;94.20
24049;DHT22;12250;50.956;4.746;2023-04-10T08:20:24;14.90;94.10
24049;DHT22;12250;50.956;4.746;2023-04-10T08:22:49;15.20;94.20
24049;DHT22;12250;50.956;4.746;2023-04-10T08:25:15;15.50;94.00
24049;DHT22;12250;50.956;4.746;2023-04-10T08:27:42;15.80;93.60
24049;DHT22;12250;50.956;4.746;2023-04-10T08:30:08;15.70;92.70
24049;DHT22;12250;50.956;4.746;2023-04-10T08:32:35;15.80;93.00
24049;DHT22;12250;50.956;4.746;2023-04-10T08:35:00;15.90;92.10
24049;DHT22;12250;50.956;4.746;2023-04-10T08:37:26;15.60;92.00
24049;DHT22;12250;50.956;4.746;2023-04-10T08:39:52;15.80;91.90
24049;DHT22;12250;50.956;4.746;2023-04-10T08:42:18;15.70;91.70
24049;DHT22;12250;50.956;4.746;2023-04-10T08:44:44;15.70;92.10
24049;DHT22;12250;50.956;4.746;2023-04-10T08:47:12;15.70;91.90
24049;DHT22;12250;50.956;4.746;2023-04-10T08:49:53;16.00;92.20
24049;DHT22;12250;50.956;4.746;2023-04-10T08:52:21;16.20;91.30
24049;DHT22;12250;50.956;4.746;2023-04-10T08:54:53;16.40;91.30
24049;DHT22;12250;50.956;4.746;2023-04-10T08:57:19;16.60;90.40
24049;DHT22;12250;50.956;4.746;2023-04-10T08:59:49;16.50;90.90
24049;DHT22;12250;50.956;4.746;2023-04-10T09:02:16;16.60;91.50
24049;DHT22;12250;50.956;4.746;2023-04-10T09:04:48;16.40;90.60
24049;DHT22;12250;50.956;4.746;2023-04-10T09:07:15;16.30;91.40
24049;DHT22;12250;50.956;4.746;2023-04-10T09:09:41;16.30;91.00
24049;DHT22;12250;50.956;4.746;2023-04-10T09:12:07;16.60;90.70
24049;DHT22;12250;50.956;4.746;2023-04-10T09:14:34;16.50;90.80
24049;DHT22;12250;50.956;4.746;2023-04-10T09:17:32;16.40;90.70
24049;DHT22;12250;50.956;4.746;2023-04-10T09:19:58;16.40;91.10
24049;DHT22;12250;50.956;4.746;2023-04-10T09:22:34;16.20;91.10
24049;DHT22;12250;50.956;4.746;2023-04-10T09:25:02;16.00;90.90
24049;DHT22;12250;50.956;4.746;2023-04-10T09:27:35;16.00;90.80
24049;DHT22;12250;50.956;4.746;2023-04-10T09:30:02;15.90;90.80
24049;DHT22;12250;50.956;4.746;2023-04-10T09:32:44;16.20;91.10
24049;DHT22;12250;50.956;4.746;2023-04-10T09:35:12;16.70;90.30
24049;DHT22;12250;50.956;4.746;2023-04-10T09:37:38;17.30;90.20
24049;DHT22;12250;50.956;4.746;2023-04-10T09:40:06;17.50;88.10
24049;DHT22;12250;50.956;4.746;2023-04-10T09:42:44;18.00;87.80
24049;DHT22;12250;50.956;4.746;2023-04-10T09:45:10;18.10;85.90
24049;DHT22;12250;50.956;4.746;2023-04-10T09:47:35;18.50;85.70
24049;DHT22;12250;50.956;4.746;2023-04-10T09:50:02;18.90;83.70
24049;DHT22;12250;50.956;4.746;2023-04-10T09:52:29;19.00;80.80
24049;DHT22;12250;50.956;4.746;2023-04-10T09:57:22;18.70;81.20
24049;DHT22;12250;50.956;4.746;2023-04-10T09:59:53;18.70;82.80
24049;DHT22;12250;50.956;4.746;2023-04-10T10:02:22;18.70;80.40
24049;DHT22;12250;50.956;4.746;2023-04-10T10:04:48;18.40;81.60
24049;DHT22;12250;50.956;4.746;2023-04-10T10:07:19;18.60;82.20
24049;DHT22;12250;50.956;4.746;2023-04-10T10:09:46;18.80;81.90
24049;DHT22;12250;50.956;4.746;2023-04-10T10:12:25;19.30;80.80
24049;DHT22;12250;50.956;4.746;2023-04-10T10:15:00;19.60;79.40
24049;DHT22;12250;50.956;4.746;2023-04-10T10:17:46;19.40;78.40
24049;DHT22;12250;50.956;4.746;2023-04-10T10:20:17;19.80;78.70
24049;DHT22;12250;50.956;4.746;2023-04-10T10:22:44;20.00;77.00
24049;DHT22;12250;50.956;4.746;2023-04-10T10:25:12;20.10;75.70
24049;DHT22;12250;50.956;4.746;2023-04-10T10:27:39;20.00;76.70
24049;DHT22;12250;50.956;4.746;2023-04-10T10:30:07;20.50;76.20
24049;DHT22;12250;50.956;4.746;2023-04-10T10:32:34;20.50;74.30
24049;DHT22;12250;50.956;4.746;2023-04-10T10:35:01;21.50;72.80
24049;DHT22;12250;50.956;4.746;2023-04-10T10:37:32;23.10;70.20
24049;DHT22;12250;50.956;4.746;2023-04-10T10:40:13;23.60;65.10
24049;DHT22;12250;50.956;4.746;2023-04-10T10:42:49;23.50;66.00
24049;DHT22;12250;50.956;4.746;2023-04-10T10:45:22;23.00;65.20
24049;DHT22;12250;50.956;4.746;2023-04-10T10:47:53;23.00;64.60
24049;DHT22;12250;50.956;4.746;2023-04-10T10:50:19;23.20;64.50
24049;DHT22;12250;50.956;4.746;2023-04-10T10:52:51;23.90;63.80
24049;DHT22;12250;50.956;4.746;2023-04-10T10:55:26;24.40;62.30
24049;DHT22;12250;50.956;4.746;2023-04-10T10:57:58;24.50;58.70
24049;DHT22;12250;50.956;4.746;2023-04-10T11:00:26;24.70;58.70
24049;DHT22;12250;50.956;4.746;2023-04-10T11:05:52;24.20;59.30
24049;DHT22;12250;50.956;4.746;2023-04-10T11:11:04;24.70;58.40
24049;DHT22;12250;50.956;4.746;2023-04-10T11:16:14;25.10;57.00
24049;DHT22;12250;50.956;4.746;2023-04-10T11:21:18;24.10;57.00
24049;DHT22;12250;50.956;4.746;2023-04-10T11:26:35;23.60;58.00
24049;DHT22;12250;50.956;4.746;2023-04-10T11:31:43;23.00;59.40
24049;DHT22;12250;50.956;4.746;2023-04-10T11:34:09;23.30;59.90
24049;DHT22;12250;50.956;4.746;2023-04-10T11:36:40;23.20;58.60
24049;DHT22;12250;50.956;4.746;2023-04-10T11:39:08;23.10;59.10
24049;DHT22;12250;50.956;4.746;2023-04-10T11:41:36;23.00;59.10
24049;DHT22;12250;50.956;4.746;2023-04-10T11:44:05;22.90;59.60
24049;DHT22;12250;50.956;4.746;2023-04-10T11:46:35;22.70;59.10
24049;DHT22;12250;50.956;4.746;2023-04-10T11:49:04;22.60;60.50
24049;DHT22;12250;50.956;4.746;2023-04-10T11:51:30;22.50;60.90
24049;DHT22;12250;50.956;4.746;2023-04-10T11:54:07;22.40;61.00
24049;DHT22;12250;50.956;4.746;2023-04-10T11:56:33;22.30;61.30
24049;DHT22;12250;50.956;4.746;2023-04-10T11:58:59;22.20;62.50
24049;DHT22;12250;50.956;4.746;2023-04-10T12:01:26;22.30;61.50
24049;DHT22;12250;50.956;4.746;2023-04-10T12:03:52;22.60;62.70
24049;DHT22;12250;50.956;4.746;2023-04-10T12:06:18;22.50;60.90
24049;DHT22;12250;50.956;4.746;2023-04-10T12:08:45;22.60;61.80
24049;DHT22;12250;50.956;4.746;2023-04-10T12:11:19;22.60;60.10
24049;DHT22;12250;50.956;4.746;2023-04-10T12:13:46;22.20;61.70
24049;DHT22;12250;50.956;4.746;2023-04-10T12:16:15;22.30;61.00
24049;DHT22;12250;50.956;4.746;2023-04-10T12:18:41;21.90;61.00
24049;DHT22;12250;50.956;4.746;2023-04-10T12:21:07;21.90;62.00
24049;DHT22;12250;50.956;4.746;2023-04-10T12:23:34;21.90;62.00
24049;DHT22;12250;50.956;4.746;2023-04-10T12:26:13;21.90;61.40
24049;DHT22;12250;50.956;4.746;2023-04-10T12:28:40;21.80;62.60
24049;DHT22;12250;50.956;4.746;2023-04-10T12:31:08;21.50;61.10
24049;DHT22;12250;50.956;4.746;2023-04-10T12:33:34;21.10;63.00
24049;DHT22;12250;50.956;4.746;2023-04-10T12:35:59;21.00;64.40
24049;DHT22;12250;50.956;4.746;2023-04-10T12:38:42;20.90;64.80
24049;DHT22;12250;50.956;4.746;2023-04-10T12:41:10;20.70;65.10
24049;DHT22;12250;50.956;4.746;2023-04-10T12:43:37;20.30;65.50
24049;DHT22;12250;50.956;4.746;2023-04-10T12:46:04;19.90;65.80
24049;DHT22;12250;50.956;4.746;2023-04-10T12:48:30;19.70;66.30
24049;DHT22;12250;50.956;4.746;2023-04-10T12:50:56;19.50;67.60
24049;DHT22;12250;50.956;4.746;2023-04-10T12:53:22;19.40;69.10
24049;DHT22;12250;50.956;4.746;2023-04-10T12:56:00;19.30;69.70
24049;DHT22;12250;50.956;4.746;2023-04-10T12:58:26;19.30;68.80
24049;DHT22;12250;50.956;4.746;2023-04-10T13:00:53;19.50;68.50
24049;DHT22;12250;50.956;4.746;2023-04-10T13:03:20;19.60;68.30
24049;DHT22;12250;50.956;4.746;2023-04-10T13:05:46;19.60;68.30
24049;DHT22;12250;50.956;4.746;2023-04-10T13:08:12;19.50;69.10
24049;DHT22;12250;50.956;4.746;2023-04-10T13:10:37;19.50;70.20
24049;DHT22;12250;50.956;4.746;2023-04-10T13:13:03;19.60;70.40
24049;DHT22;12250;50.956;4.746;2023-04-10T13:15:31;19.30;71.20
24049;DHT22;12250;50.956;4.746;2023-04-10T13:17:59;19.00;72.00
24049;DHT22;12250;50.956;4.746;2023-04-10T13:20:25;19.00;72.50
24049;DHT22;12250;50.956;4.746;2023-04-10T13:22:50;19.00;71.40
24049;DHT22;12250;50.956;4.746;2023-04-10T13:25:16;18.80;71.60
24049;DHT22;12250;50.956;4.746;2023-04-10T13:27:41;18.90;72.90
24049;DHT22;12250;50.956;4.746;2023-04-10T13:30:07;19.00;73.00
24049;DHT22;12250;50.956;4.746;2023-04-10T13:32:33;18.80;74.50
24049;DHT22;12250;50.956;4.746;2023-04-10T13:34:58;18.40;75.80
24049;DHT22;12250;50.956;4.746;2023-04-10T13:37:24;18.00;76.10
24049;DHT22;12250;50.956;4.746;2023-04-10T13:39:51;18.00;78.00
24049;DHT22;12250;50.956;4.746;2023-04-10T13:42:16;18.10;78.00
24049;DHT22;12250;50.956;4.746;2023-04-10T13:44:42;18.10;77.30
24049;DHT22;12250;50.956;4.746;2023-04-10T13:47:08;18.10;77.40
24049;DHT22;12250;50.956;4.746;2023-04-10T13:49:33;18.30;77.40
24049;DHT22;12250;50.956;4.746;2023-04-10T13:52:00;18.50;76.80
24049;DHT22;12250;50.956;4.746;2023-04-10T13:54:25;18.80;77.80
24049;DHT22;12250;50.956;4.746;2023-04-10T13:56:51;18.90;76.00
24049;DHT22;12250;50.956;4.746;2023-04-10T13:59:19;18.90;76.70
24049;DHT22;12250;50.956;4.746;2023-04-10T14:01:44;18.90;76.20
24049;DHT22;12250;50.956;4.746;2023-04-10T14:04:11;18.80;75.90
24049;DHT22;12250;50.956;4.746;2023-04-10T14:06:37;18.90;76.40
24049;DHT22;12250;50.956;4.746;2023-04-10T14:09:03;19.10;75.00
24049;DHT22;12250;50.956;4.746;2023-04-10T14:11:29;19.30;74.10
24049;DHT22;12250;50.956;4.746;2023-04-10T14:13:54;19.30;73.50
24049;DHT22;12250;50.956;4.746;2023-04-10T14:16:20;19.20;72.90
24049;DHT22;12250;50.956;4.746;2023-04-10T14:18:46;19.10;73.30
24049;DHT22;12250;50.956;4.746;2023-04-10T14:21:11;19.00;73.40
24049;DHT22;12250;50.956;4.746;2023-04-10T14:23:37;19.20;73.50
24049;DHT22;12250;50.956;4.746;2023-04-10T14:26:04;19.30;73.30
24049;DHT22;12250;50.956;4.746;2023-04-10T14:28:31;19.50;72.80
24049;DHT22;12250;50.956;4.746;2023-04-10T14:30:56;19.60;72.90
24049;DHT22;12250;50.956;4.746;2023-04-10T14:33:22;19.70;71.60
24049;DHT22;12250;50.956;4.746;2023-04-10T14:35:47;19.60;71.80
24049;DHT22;12250;50.956;4.746;2023-04-10T14:38:13;19.40;72.70
24049;DHT22;12250;50.956;4.746;2023-04-10T14:40:40;19.20;73.00
24049;DHT22;12250;50.956;4.746;2023-04-10T14:43:06;19.10;74.40
24049;DHT22;12250;50.956;4.746;2023-04-10T14:45:32;19.00;73.60
24049;DHT22;12250;50.956;4.746;2023-04-10T14:47:58;18.60;74.40
24049;DHT22;12250;50.956;4.746;2023-04-10T14:50:24;18.60;75.60
24049;DHT22;12250;50.956;4.746;2023-04-10T14:52:52;18.40;76.30
24049;DHT22;12250;50.956;4.746;2023-04-10T14:55:18;18.40;76.40
24049;DHT22;12250;50.956;4.746;2023-04-10T14:57:44;18.40;77.30
24049;DHT22;12250;50.956;4.746;2023-04-10T15:00:10;18.40;76.20
24049;DHT22;12250;50.956;4.746;2023-04-10T15:02:35;18.30;77.00
24049;DHT22;12250;50.956;4.746;2023-04-10T15:05:03;18.10;79.40
24049;DHT22;12250;50.956;4.746;2023-04-10T15:07:28;17.80;82.00
24049;DHT22;12250;50.956;4.746;2023-04-10T15:09:57;17.60;83.70
24049;DHT22;12250;50.956;4.746;2023-04-10T15:12:23;17.40;84.40
24049;DHT22;12250;50.956;4.746;2023-04-10T15:14:50;17.20;86.60
24049;DHT22;12250;50.956;4.746;2023-04-10T15:17:16;17.00;89.10
24049;DHT22;12250;50.956;4.746;2023-04-10T15:19:41;16.70;89.30
24049;DHT22;12250;50.956;4.746;2023-04-10T15:22:07;16.40;90.70
24049;DHT22;12250;50.956;4.746;2023-04-10T15:24:32;16.20;90.80
24049;DHT22;12250;50.956;4.746;2023-04-10T15:26:58;16.00;91.50
24049;DHT22;12250;50.956;4.746;2023-04-10T15:29:23;15.90;92.20
24049;DHT22;12250;50.956;4.746;2023-04-10T15:31:49;15.90;92.90
24049;DHT22;12250;50.956;4.746;2023-04-10T15:34:15;15.80;93.30
24049;DHT22;12250;50.956;4.746;2023-04-10T15:36:41;15.80;94.10
24049;DHT22;12250;50.956;4.746;2023-04-10T15:39:07;15.80;94.20
24049;DHT22;12250;50.956;4.746;2023-04-10T15:41:33;15.90;94.10
24049;DHT22;12250;50.956;4.746;2023-04-10T15:43:58;16.00;94.20
24049;DHT22;12250;50.956;4.746;2023-04-10T15:46:24;16.00;94.30
24049;DHT22;12250;50.956;4.746;2023-04-10T15:48:51;16.00;95.30
24049;DHT22;12250;50.956;4.746;2023-04-10T15:51:17;15.80;96.00
24049;DHT22;12250;50.956;4.746;2023-04-10T15:53:42;15.70;96.00
24049;DHT22;12250;50.956;4.746;2023-04-10T15:56:08;15.60;97.20
24049;DHT22;12250;50.956;4.746;2023-04-10T15:58:33;15.50;97.80
24049;DHT22;12250;50.956;4.746;2023-04-10T16:01:00;15.50;98.70
24049;DHT22;12250;50.956;4.746;2023-04-10T16:03:25;15.40;99.40
24049;DHT22;12250;50.956;4.746;2023-04-10T16:05:51;15.40;99.90
24049;DHT22;12250;50.956;4.746;2023-04-10T16:08:17;15.30;99.90
24049;DHT22;12250;50.956;4.746;2023-04-10T16:10:43;15.20;99.90